AirNav  
 
 1443 users online  

I23 Fayette County Airport
Washington Court House, Ohio, USA

GOING TO WASHINGTON COURT HOUSE?


FAA INFORMATION EFFECTIVE 09 NOVEMBER 2017

Location

FAA Identifier: I23
Lat/Long: 39-34-13.4545N / 083-25-13.8582W
39-34.224242N / 083-25.230970W
39.5704040 / -83.4205162
(estimated)
Elevation: 979.6 ft. / 298.6 m (surveyed)
Variation: 06W (2000)
From city: 2 miles NE of WASHINGTON COURT HOUSE, OH
Time zone: UTC -5 (UTC -4 during Daylight Saving Time)
Zip code: 43160

Airport Operations

Airport use: Open to the public
Activation date: 03/1967
Control tower: no
ARTCC: INDIANAPOLIS CENTER
FSS: DAYTON FLIGHT SERVICE STATION
NOTAMs facility: DAY (NOTAM-D service available)
Attendance: MON-SAT 0800-1800
Pattern altitude: 1779.6 ft. MSL
Wind indicator: lighted
Segmented circle: no
Lights: ACTVT MIRL RY 05/23 MIRL CTAF 122.8.
Beacon: white-green (lighted land airport)
Operates sunset to sunrise.

Airport Communications

CTAF/UNICOM: 122.8
WX AWOS-3PT: 118.775
COLUMBUS APPROACH: 134.0
COLUMBUS DEPARTURE: 134.0
IC: 134.0
WX ASOS at ILN (19 nm SW): PHONE 937-383-7334
WX AWOS-3 at RZT (20 nm SE): 119.225 (740-779-1364)

Nearby radio navigation aids

VOR radial/distance  VOR name  Freq  Var
MXQr068/19.5MIDWEST VOR/DME112.9004W
XUBr282/(20.6)YELLOW BUD VOR112.5005W
SGHr133/25.3SPRINGFIELD VOR/DME113.2004W

 
NDB name  Hdg/Dist  Freq  Var  ID
COURT HOUSE222/2.341406WCSS -.-. ... ...
HILLSBORO019/23.827805WHOC .... --- -.-.
CLARK COUNTY142/24.634104WCCJ -.-. -.-. .---
WAVERLY323/33.238506WEOP . --- .--.

Airport Services

Fuel available: 100LL JET-A
Parking: tiedowns
Bottled oxygen: NONE
Bulk oxygen: NONE

Runway Information

Runway 5/23

Dimensions: 5097 x 75 ft. / 1554 x 23 m
Surface: asphalt, in good condition
Weight bearing capacity: 
Single wheel: 30.0
Double wheel: 40.0
Runway edge lights: medium intensity
RUNWAY 5  RUNWAY 23
Latitude: 39-33.876502N39-34.571967N
Longitude: 083-25.534697W083-24.927193W
Elevation: 978.4 ft.975.6 ft.
Gradient: 0.1%0.1%
Traffic pattern: leftleft
Runway heading: 040 magnetic, 034 true220 magnetic, 214 true
Markings: nonprecision, in good conditionnonprecision, in good condition
Visual slope indicator: 4-light PAPI on left (3.00 degrees glide path)
Runway end identifier lights: noyes
Touchdown point: yes, no lightsyes, no lights
Obstructions: 28 ft. rr, 201 ft. from runway, 245 ft. right of centerline
+28 FT RR 0 FT FM END 240 FT R.
28 ft. rr, 201 ft. from runway, 240 ft. left of centerline
+28 RR 0' FM RY END 220 FT L; +20-28 FT BRUSH/TREES 0-200 FT FM 220 L.

Airport Ownership and Management from official FAA records

Ownership: Publicly-owned
Owner: FAYETTE COUNTY COMMISSIONERS
2770 STATE ROUTE 38
WASH. COURTHOUSE, OH 43160
Phone 740-335-2430
Manager: JERRY VANDYKE
2770 ST RT 38 NE
WASH. COURTHOUSE, OH 43160
Phone 740-335-2430
CELL PHONE 740-937-7170

Airport Operational Statistics

Aircraft based on the field: 24
Single engine airplanes: 23
Multi engine airplanes: 1
    
Aircraft operations: avg 81/day *
53% transient general aviation
44% local general aviation
2% air taxi
1% military
* for 12-month period ending 29 September 2015

Additional Remarks

CLNC DEL (614) 338-8537.

Instrument Procedures

NOTE: All procedures below are presented as PDF files. If you need a reader for these files, you should download the free Adobe Reader.

NOT FOR NAVIGATION. Please procure official charts for flight.
FAA instrument procedures published for use between 9 November 2017 at 0901Z and 7 December 2017 at 0900Z.

 
IAPs - Instrument Approach Procedures
RNAV (GPS) RWY 23   download (186KB)
NDB RWY 23   download (189KB)
NOTE: Special Take-Off Minimums/Departure Procedures apply   download (164KB)

Other nearby airports with instrument procedures:

KILN - Wilmington Air Park (19 nm SW)
KRZT - Ross County Airport (20 nm SE)
KCYO - Pickaway County Memorial Airport (21 nm E)
I66 - Clinton Field Airport (21 nm W)
KUYF - Madison County Airport (22 nm N)
 
Loc | Ops | Rwys | IFR | FBO | Links
Com | Nav | Svcs | Stats | Notes


 
Area around I23 (Fayette County Airport)
 
Road maps at: MapQuest Bing Google
 
Aerial photo
WARNING: Photo may not be current or correct
Aerial photo of I23 (Fayette County Airport)
Photo taken 11-Mar-2007

Do you have a better or more recent aerial photo of Fayette County Airport that you would like to share? If so, please send us your photo.

 
Sectional chart

 
Airport distance calculator
Flying to Fayette County Airport? Find the distance to fly.

From to I23

Sunrise and sunset
Times for 20-Nov-2017
 Local
(UTC-5)
 Zulu
(UTC)
Morning civil twilight06:5511:55
Sunrise07:2512:25
Sunset17:1422:14
Evening civil twilight17:4322:43

Current date and time
Zulu (UTC)  20-Nov-2017 18:57:58
Local (UTC-5)  20-Nov-2017 13:57:58
 
METAR
KILN 
19nm SW 
201854Z AUTO 19014KT 10SM CLR 07/M02 A3010 RMK AO2 SLP215 T00671017
KRZT 
20nm SE 
201854Z AUTO 22009KT 10SM CLR 07/M05 A3013 RMK AO2
KUYF 
22nm N 
201835Z AUTO 20017G22KT 10SM CLR 06/M01 A3009 RMK AO2
KTZR 
23nm NE 
201850Z 21013KT 10SM SKC 06/M03 A3011
KSGH 
24nm NW 
201756Z AUTO 21015G19KT 10SM CLR 05/M03 A3010 RMK AO2 SLP206 T00501033 10050 21050 58028 $
KLCK 
28nm NE 
201835Z AUTO 19010G19KT 10SM CLR 06/M03 A3013 RMK AO2 T00591034
KFFO 
32nm NW 
201758Z 21006KT 10SM SCT250 05/M06 A3012 RMK SLP211 WND DATA ESTMD ALSTG/SLP ESTMD 58027
KOSU 
34nm NE 
201853Z 19012KT 10SM CLR 06/M02 A3009 RMK AO2 SLP198 T00611022
KCMH 
36nm NE 
201851Z 18012KT 9SM SCT200 07/M03 A3011 RMK AO2 SLP203 T00671028
KLHQ 
36nm E 
201853Z AUTO 20014KT 10SM CLR 06/M03 A3013 RMK AO2 SLP208 T00611033
TAF
KILN 
19nm SW 
201722Z 2018/2118 22012G20KT P6SM BKN250 FM202200 20009KT P6SM SCT250 FM210600 20011KT P6SM SCT250 WS020/23040KT FM211400 21014G24KT P6SM BKN250
NOTAMs
Click for the latest NOTAMs
NOTAMs are issued by the DoD/FAA and will open in a separate window not controlled by AirNav.

 

 
 

FBO, Fuel Providers, and Aircraft Ground Support

  
 Business Name 
 
 Contact 
 
 Services / Description 
 
Fuel Prices
 
Comments
  
Fayette County (FBO) 740-335-2430
no information available

If you are affiliated with Fayette County (FBO) and would like to show here your services, contact info, web link, logo, and more, click here
100LL Jet A
FS $4.55 $3.00 
SS $4.40 $2.91 
 Updated 17-Nov-2017
 
   3 read write
FS=Full service
SS=Self service
Update Fuel Prices
 

Would you like to see your business listed on this page?

 If your business provides an interesting product or service to pilots, flight crews, aircraft, or users of the Fayette County Airport, you should consider listing it here.  To start the listing process, click on the button below
 
Add a business
 

Other Pages about Fayette County Airport

Update a link
 
Copyright © AirNav, LLC. All rights reserved. Privacy Policy  Contact